This is the latest recevied weather packets stored in our database for station/object KD2VWU. If no packets are shown the sender has not sent any weather packets the latest 1 day(s).
| Time | Temp. | Humidity | Pressure | Rain* | Wind** | Luminosity | Snow |
|---|---|---|---|---|---|---|---|
| 1778082807 | 18.89° C | 78% | 1005.9 hPa | 0 mm | - | - | - |
| 1778081377 | 18.89° C | 77% | 1006.4 hPa | 0 mm | - | - | - |
| 1778080469 | 19.44° C | 77% | 1006 hPa | 0 mm | - | - | - |
| 1778080167 | 19.44° C | 75% | 1006.1 hPa | 0 mm | - | - | - |
| 1778077441 | 18.89° C | 78% | 1006.4 hPa | 0 mm | - | - | - |
| 1778076231 | 19.44° C | 78% | 1006.5 hPa | 0 mm | - | - | - |
| 1778075625 | 18.89° C | 79% | 1006.2 hPa | 0 mm | - | - | - |
| 1778074715 | 18.33° C | 81% | 1006.1 hPa | 0 mm | - | - | - |
| 1778074412 | 18.33° C | 82% | 1006.1 hPa | 0 mm | - | - | - |
| 1778074108 | 18.33° C | 82% | 1006.2 hPa | 0 mm | - | - | - |
| 1778073503 | 17.78° C | 82% | 1006.2 hPa | 0 mm | - | - | - |
| 1778072291 | 16.67° C | 87% | 1006.1 hPa | 0 mm | - | - | - |
| 1778071989 | 16.67° C | 86% | 1006.4 hPa | 0 mm | - | - | - |
| 1778068359 | 15.56° C | 89% | 1006.6 hPa | 0 mm | - | - | - |
| 1778066544 | 14.44° C | 94% | 1006.7 hPa | 0 mm | - | - | - |
| 1778065635 | 13.89° C | 96% | 1006.5 hPa | 0 mm | - | - | - |
| 1778065333 | 13.89° C | 96% | 1007 hPa | 0 mm | - | - | - |
| 1778065029 | 13.89° C | 96% | 1007 hPa | 0 mm | - | - | - |
| 1778064726 | 13.89° C | 97% | 1006.7 hPa | 0 mm | - | - | - |
| 1778062607 | 12.78° C | 98% | 1006.7 hPa | 0 mm | - | - | - |
| 1778062304 | 12.78° C | 98% | 1006.4 hPa | 0 mm | - | - | - |
| 1778062003 | 12.78° C | 98% | 1006.5 hPa | 0 mm | - | - | - |
| 1778061095 | 12.78° C | 99% | 1006.5 hPa | 0 mm | - | - | - |
| 1778059885 | 12.78° C | 98% | 1006.4 hPa | 0 mm | - | - | - |
| 1778059583 | 12.78° C | 98% | 1006.6 hPa | 0 mm | - | - | - |
* Rain latest hour (hover to see other rain measurements)
** Current wind speed in m/s (hover to see current wind gust speed)